X  Fechar Dados meteorológicos de METAR da aviação     EDDG Münster Osnabrück Airport
Temperatura
12°C Temperatura
10°C Ponto de orvalho
88% Umidade



Vento
14 KM/H
9 MPH
4 M/S
8 NÓS



230°
SO
Condições atuais

Leve Aguaceiros Chuva Leve Aguaceiros Chuva
Pressão 1011.92 (hPa) - 29.88 (inHg)
Visibilidade 6.2 (milha) - 10 (km)
Aeroporto
Código do aeroporto EDDG

Localização: Münster Osnabrück Airport
Distância: 45 (km)

Metar:
EDDG 012120Z AUTO 23008KT 9999 -SHRA FEW038 FEW///TCU 12/10 Q1012 RESHRA NOSIG

Hora: 01-10-2022 23:20 CEST